sensor_id;sensor_type;location;lat;lon;timestamp;P1;durP1;ratioP1;P2;durP2;ratioP2
30462;SDS011;17256;43.618;25.336;2023-06-22T00:02:17;12.33;;;11.23;;
30462;SDS011;17256;43.618;25.336;2023-06-22T00:04:43;12.73;;;11.60;;
30462;SDS011;17256;43.618;25.336;2023-06-22T00:07:08;12.10;;;11.17;;
30462;SDS011;17256;43.618;25.336;2023-06-22T00:09:34;12.47;;;11.27;;
30462;SDS011;17256;43.618;25.336;2023-06-22T00:12:01;13.00;;;11.90;;
30462;SDS011;17256;43.618;25.336;2023-06-22T00:14:27;12.67;;;11.53;;
30462;SDS011;17256;43.618;25.336;2023-06-22T00:16:52;12.20;;;11.10;;
30462;SDS011;17256;43.618;25.336;2023-06-22T00:19:23;13.73;;;12.33;;
30462;SDS011;17256;43.618;25.336;2023-06-22T00:21:50;13.83;;;12.47;;
30462;SDS011;17256;43.618;25.336;2023-06-22T00:24:18;13.30;;;12.00;;
30462;SDS011;17256;43.618;25.336;2023-06-22T00:26:48;17.23;;;13.20;;
30462;SDS011;17256;43.618;25.336;2023-06-22T00:29:14;14.20;;;13.00;;
30462;SDS011;17256;43.618;25.336;2023-06-22T00:31:40;14.33;;;13.03;;
30462;SDS011;17256;43.618;25.336;2023-06-22T00:34:05;15.37;;;14.07;;
30462;SDS011;17256;43.618;25.336;2023-06-22T00:36:34;15.33;;;14.00;;
30462;SDS011;17256;43.618;25.336;2023-06-22T00:39:00;15.37;;;13.97;;
30462;SDS011;17256;43.618;25.336;2023-06-22T00:41:28;14.03;;;12.63;;
30462;SDS011;17256;43.618;25.336;2023-06-22T00:43:54;14.50;;;13.20;;
30462;SDS011;17256;43.618;25.336;2023-06-22T00:46:20;13.00;;;11.77;;
30462;SDS011;17256;43.618;25.336;2023-06-22T00:48:48;14.30;;;13.00;;
30462;SDS011;17256;43.618;25.336;2023-06-22T00:51:14;14.03;;;12.70;;
30462;SDS011;17256;43.618;25.336;2023-06-22T00:53:40;13.30;;;12.13;;
30462;SDS011;17256;43.618;25.336;2023-06-22T00:56:09;12.23;;;11.13;;
30462;SDS011;17256;43.618;25.336;2023-06-22T00:58:38;12.57;;;11.47;;
30462;SDS011;17256;43.618;25.336;2023-06-22T01:01:06;13.33;;;11.93;;
30462;SDS011;17256;43.618;25.336;2023-06-22T01:03:32;14.60;;;13.30;;
30462;SDS011;17256;43.618;25.336;2023-06-22T01:06:07;13.50;;;11.77;;
30462;SDS011;17256;43.618;25.336;2023-06-22T01:08:57;12.40;;;11.30;;
30462;SDS011;17256;43.618;25.336;2023-06-22T01:11:32;12.63;;;11.33;;
30462;SDS011;17256;43.618;25.336;2023-06-22T01:14:12;13.63;;;12.17;;
30462;SDS011;17256;43.618;25.336;2023-06-22T01:16:57;12.43;;;11.33;;
30462;SDS011;17256;43.618;25.336;2023-06-22T01:19:44;12.53;;;11.23;;
30462;SDS011;17256;43.618;25.336;2023-06-22T01:22:17;12.77;;;11.53;;
30462;SDS011;17256;43.618;25.336;2023-06-22T01:30:10;14.37;;;13.10;;
30462;SDS011;17256;43.618;25.336;2023-06-22T01:32:38;15.43;;;14.03;;
30462;SDS011;17256;43.618;25.336;2023-06-22T01:35:06;15.90;;;14.40;;
30462;SDS011;17256;43.618;25.336;2023-06-22T01:37:34;15.93;;;14.43;;
30462;SDS011;17256;43.618;25.336;2023-06-22T01:40:01;15.23;;;13.73;;
30462;SDS011;17256;43.618;25.336;2023-06-22T01:42:29;15.47;;;13.90;;
30462;SDS011;17256;43.618;25.336;2023-06-22T01:44:55;15.03;;;13.53;;
30462;SDS011;17256;43.618;25.336;2023-06-22T01:47:23;15.70;;;14.30;;
30462;SDS011;17256;43.618;25.336;2023-06-22T01:49:49;15.50;;;14.10;;
30462;SDS011;17256;43.618;25.336;2023-06-22T01:52:17;16.23;;;14.63;;
30462;SDS011;17256;43.618;25.336;2023-06-22T01:54:43;16.87;;;15.23;;
30462;SDS011;17256;43.618;25.336;2023-06-22T01:57:09;16.87;;;15.10;;
30462;SDS011;17256;43.618;25.336;2023-06-22T01:59:37;17.03;;;15.23;;
30462;SDS011;17256;43.618;25.336;2023-06-22T02:02:19;18.07;;;15.10;;
30462;SDS011;17256;43.618;25.336;2023-06-22T02:07:32;16.77;;;15.07;;
30462;SDS011;17256;43.618;25.336;2023-06-22T02:10:04;17.27;;;15.77;;
30462;SDS011;17256;43.618;25.336;2023-06-22T02:12:32;17.37;;;15.77;;
30462;SDS011;17256;43.618;25.336;2023-06-22T02:15:00;22.23;;;16.63;;
30462;SDS011;17256;43.618;25.336;2023-06-22T02:17:27;21.03;;;17.27;;
30462;SDS011;17256;43.618;25.336;2023-06-22T02:19:53;17.60;;;15.77;;
30462;SDS011;17256;43.618;25.336;2023-06-22T02:22:19;26.40;;;17.30;;
30462;SDS011;17256;43.618;25.336;2023-06-22T02:24:44;18.43;;;15.67;;
30462;SDS011;17256;43.618;25.336;2023-06-22T02:27:10;17.67;;;16.13;;
30462;SDS011;17256;43.618;25.336;2023-06-22T02:29:36;15.33;;;14.03;;
30462;SDS011;17256;43.618;25.336;2023-06-22T02:32:02;14.50;;;13.10;;
30462;SDS011;17256;43.618;25.336;2023-06-22T02:34:29;16.57;;;14.83;;
30462;SDS011;17256;43.618;25.336;2023-06-22T02:36:54;15.50;;;13.97;;
30462;SDS011;17256;43.618;25.336;2023-06-22T02:39:20;15.53;;;14.03;;
30462;SDS011;17256;43.618;25.336;2023-06-22T02:41:49;17.77;;;14.00;;
30462;SDS011;17256;43.618;25.336;2023-06-22T02:44:15;16.13;;;14.73;;
30462;SDS011;17256;43.618;25.336;2023-06-22T02:46:40;15.63;;;14.23;;
30462;SDS011;17256;43.618;25.336;2023-06-22T02:49:06;16.07;;;14.47;;
30462;SDS011;17256;43.618;25.336;2023-06-22T02:51:35;16.57;;;15.03;;
30462;SDS011;17256;43.618;25.336;2023-06-22T02:54:01;16.63;;;14.93;;
30462;SDS011;17256;43.618;25.336;2023-06-22T02:56:28;19.57;;;16.00;;
30462;SDS011;17256;43.618;25.336;2023-06-22T02:58:58;15.77;;;14.27;;
30462;SDS011;17256;43.618;25.336;2023-06-22T03:01:30;16.43;;;15.00;;
30462;SDS011;17256;43.618;25.336;2023-06-22T03:04:01;17.93;;;16.23;;
30462;SDS011;17256;43.618;25.336;2023-06-22T03:06:27;17.57;;;15.87;;
30462;SDS011;17256;43.618;25.336;2023-06-22T03:09:01;18.97;;;17.17;;
30462;SDS011;17256;43.618;25.336;2023-06-22T03:11:34;19.03;;;17.13;;
30462;SDS011;17256;43.618;25.336;2023-06-22T03:14:00;19.93;;;17.93;;
30462;SDS011;17256;43.618;25.336;2023-06-22T03:16:27;18.60;;;16.77;;
30462;SDS011;17256;43.618;25.336;2023-06-22T03:18:55;20.37;;;18.47;;
30462;SDS011;17256;43.618;25.336;2023-06-22T03:21:22;20.50;;;18.40;;
30462;SDS011;17256;43.618;25.336;2023-06-22T03:23:48;18.23;;;16.20;;
30462;SDS011;17256;43.618;25.336;2023-06-22T03:26:16;16.77;;;15.23;;
30462;SDS011;17256;43.618;25.336;2023-06-22T03:28:42;17.43;;;15.70;;
30462;SDS011;17256;43.618;25.336;2023-06-22T03:31:08;16.90;;;15.17;;
30462;SDS011;17256;43.618;25.336;2023-06-22T03:33:37;17.53;;;15.63;;
30462;SDS011;17256;43.618;25.336;2023-06-22T03:36:02;16.63;;;15.10;;
30462;SDS011;17256;43.618;25.336;2023-06-22T03:38:28;17.60;;;15.83;;
30462;SDS011;17256;43.618;25.336;2023-06-22T03:40:56;17.73;;;15.00;;
30462;SDS011;17256;43.618;25.336;2023-06-22T03:43:23;18.37;;;15.77;;
30462;SDS011;17256;43.618;25.336;2023-06-22T03:45:48;15.83;;;14.37;;
30462;SDS011;17256;43.618;25.336;2023-06-22T03:48:14;15.67;;;14.37;;
30462;SDS011;17256;43.618;25.336;2023-06-22T03:50:53;16.77;;;15.00;;
30462;SDS011;17256;43.618;25.336;2023-06-22T03:53:18;16.60;;;14.90;;
30462;SDS011;17256;43.618;25.336;2023-06-22T03:55:49;16.63;;;15.00;;
30462;SDS011;17256;43.618;25.336;2023-06-22T03:58:18;20.23;;;16.40;;
30462;SDS011;17256;43.618;25.336;2023-06-22T04:00:45;24.33;;;21.80;;
30462;SDS011;17256;43.618;25.336;2023-06-22T04:03:12;30.27;;;27.17;;
30462;SDS011;17256;43.618;25.336;2023-06-22T04:05:38;39.83;;;32.83;;
30462;SDS011;17256;43.618;25.336;2023-06-22T04:08:05;34.07;;;30.37;;
30462;SDS011;17256;43.618;25.336;2023-06-22T04:10:31;32.27;;;28.87;;
30462;SDS011;17256;43.618;25.336;2023-06-22T04:12:56;27.87;;;25.10;;
30462;SDS011;17256;43.618;25.336;2023-06-22T04:15:22;25.40;;;23.00;;
30462;SDS011;17256;43.618;25.336;2023-06-22T04:17:49;21.60;;;19.50;;
30462;SDS011;17256;43.618;25.336;2023-06-22T04:20:16;23.07;;;20.80;;
30462;SDS011;17256;43.618;25.336;2023-06-22T04:22:43;22.67;;;20.37;;
30462;SDS011;17256;43.618;25.336;2023-06-22T04:25:08;18.83;;;17.03;;
30462;SDS011;17256;43.618;25.336;2023-06-22T04:27:34;18.63;;;16.80;;
30462;SDS011;17256;43.618;25.336;2023-06-22T04:30:05;17.90;;;16.00;;
30462;SDS011;17256;43.618;25.336;2023-06-22T04:32:33;15.73;;;14.17;;
30462;SDS011;17256;43.618;25.336;2023-06-22T04:35:01;15.43;;;13.93;;
30462;SDS011;17256;43.618;25.336;2023-06-22T04:37:29;15.77;;;13.97;;
30462;SDS011;17256;43.618;25.336;2023-06-22T04:39:55;15.43;;;14.13;;
30462;SDS011;17256;43.618;25.336;2023-06-22T04:42:21;16.23;;;14.50;;
30462;SDS011;17256;43.618;25.336;2023-06-22T04:44:47;15.23;;;13.83;;
30462;SDS011;17256;43.618;25.336;2023-06-22T04:47:12;15.60;;;14.00;;
30462;SDS011;17256;43.618;25.336;2023-06-22T04:49:38;17.23;;;13.83;;
30462;SDS011;17256;43.618;25.336;2023-06-22T04:52:06;18.50;;;13.43;;
30462;SDS011;17256;43.618;25.336;2023-06-22T04:54:34;33.70;;;16.10;;
30462;SDS011;17256;43.618;25.336;2023-06-22T04:57:04;22.73;;;14.27;;
30462;SDS011;17256;43.618;25.336;2023-06-22T04:59:36;18.03;;;16.17;;
30462;SDS011;17256;43.618;25.336;2023-06-22T05:02:04;25.03;;;14.80;;
30462;SDS011;17256;43.618;25.336;2023-06-22T05:04:31;22.13;;;14.43;;
30462;SDS011;17256;43.618;25.336;2023-06-22T05:06:57;25.20;;;13.73;;
30462;SDS011;17256;43.618;25.336;2023-06-22T05:09:23;17.97;;;13.13;;
30462;SDS011;17256;43.618;25.336;2023-06-22T05:11:50;20.50;;;14.63;;
30462;SDS011;17256;43.618;25.336;2023-06-22T05:14:16;23.17;;;16.00;;
30462;SDS011;17256;43.618;25.336;2023-06-22T05:16:42;17.27;;;15.37;;
30462;SDS011;17256;43.618;25.336;2023-06-22T05:19:08;16.10;;;13.97;;
30462;SDS011;17256;43.618;25.336;2023-06-22T05:21:34;15.27;;;13.97;;
30462;SDS011;17256;43.618;25.336;2023-06-22T05:23:59;18.83;;;16.50;;
30462;SDS011;17256;43.618;25.336;2023-06-22T05:26:27;21.53;;;15.40;;
30462;SDS011;17256;43.618;25.336;2023-06-22T05:28:54;22.57;;;14.87;;
30462;SDS011;17256;43.618;25.336;2023-06-22T05:31:19;25.47;;;13.87;;
30462;SDS011;17256;43.618;25.336;2023-06-22T05:33:46;16.40;;;13.87;;
30462;SDS011;17256;43.618;25.336;2023-06-22T05:36:12;17.60;;;15.20;;
30462;SDS011;17256;43.618;25.336;2023-06-22T05:38:38;14.80;;;13.30;;
30462;SDS011;17256;43.618;25.336;2023-06-22T05:41:04;18.13;;;13.83;;
30462;SDS011;17256;43.618;25.336;2023-06-22T05:43:30;18.83;;;13.53;;
30462;SDS011;17256;43.618;25.336;2023-06-22T05:45:55;18.17;;;13.83;;
30462;SDS011;17256;43.618;25.336;2023-06-22T05:48:21;15.50;;;14.03;;
30462;SDS011;17256;43.618;25.336;2023-06-22T05:50:47;16.50;;;14.87;;
30462;SDS011;17256;43.618;25.336;2023-06-22T05:53:12;14.57;;;13.03;;
30462;SDS011;17256;43.618;25.336;2023-06-22T05:55:38;17.40;;;12.80;;
30462;SDS011;17256;43.618;25.336;2023-06-22T05:58:04;15.67;;;14.17;;
30462;SDS011;17256;43.618;25.336;2023-06-22T06:00:29;16.53;;;12.83;;
30462;SDS011;17256;43.618;25.336;2023-06-22T06:02:56;14.97;;;13.57;;
30462;SDS011;17256;43.618;25.336;2023-06-22T06:05:21;14.73;;;13.17;;
30462;SDS011;17256;43.618;25.336;2023-06-22T06:07:49;15.77;;;14.13;;
30462;SDS011;17256;43.618;25.336;2023-06-22T06:10:14;14.90;;;13.43;;
30462;SDS011;17256;43.618;25.336;2023-06-22T06:12:40;15.37;;;12.80;;
30462;SDS011;17256;43.618;25.336;2023-06-22T06:15:05;14.97;;;13.30;;
30462;SDS011;17256;43.618;25.336;2023-06-22T06:17:31;15.07;;;13.67;;
30462;SDS011;17256;43.618;25.336;2023-06-22T06:19:58;14.53;;;13.03;;
30462;SDS011;17256;43.618;25.336;2023-06-22T06:22:24;15.30;;;13.63;;
30462;SDS011;17256;43.618;25.336;2023-06-22T06:24:50;12.43;;;11.23;;
30462;SDS011;17256;43.618;25.336;2023-06-22T06:27:15;12.73;;;11.53;;
30462;SDS011;17256;43.618;25.336;2023-06-22T06:29:43;14.80;;;12.77;;
30462;SDS011;17256;43.618;25.336;2023-06-22T06:32:10;20.80;;;12.27;;
30462;SDS011;17256;43.618;25.336;2023-06-22T06:34:37;14.93;;;11.47;;
30462;SDS011;17256;43.618;25.336;2023-06-22T06:37:03;12.70;;;11.50;;
30462;SDS011;17256;43.618;25.336;2023-06-22T06:39:28;13.17;;;11.90;;
30462;SDS011;17256;43.618;25.336;2023-06-22T06:41:54;13.70;;;12.00;;
30462;SDS011;17256;43.618;25.336;2023-06-22T06:44:19;13.13;;;11.70;;
30462;SDS011;17256;43.618;25.336;2023-06-22T06:46:45;11.90;;;10.87;;
30462;SDS011;17256;43.618;25.336;2023-06-22T06:49:10;12.33;;;11.20;;
30462;SDS011;17256;43.618;25.336;2023-06-22T06:51:36;11.23;;;10.13;;
30462;SDS011;17256;43.618;25.336;2023-06-22T06:54:02;13.17;;;10.10;;
30462;SDS011;17256;43.618;25.336;2023-06-22T06:56:28;12.97;;;10.80;;
30462;SDS011;17256;43.618;25.336;2023-06-22T06:58:55;12.23;;;11.03;;
30462;SDS011;17256;43.618;25.336;2023-06-22T07:01:20;13.53;;;10.20;;
30462;SDS011;17256;43.618;25.336;2023-06-22T07:03:46;12.90;;;10.10;;
30462;SDS011;17256;43.618;25.336;2023-06-22T07:06:12;11.03;;;9.83;;
30462;SDS011;17256;43.618;25.336;2023-06-22T07:08:38;12.43;;;10.47;;
30462;SDS011;17256;43.618;25.336;2023-06-22T07:11:05;12.03;;;10.87;;
30462;SDS011;17256;43.618;25.336;2023-06-22T07:13:30;10.87;;;9.87;;
30462;SDS011;17256;43.618;25.336;2023-06-22T07:15:56;9.87;;;8.73;;
30462;SDS011;17256;43.618;25.336;2023-06-22T07:18:22;10.17;;;8.80;;
30462;SDS011;17256;43.618;25.336;2023-06-22T07:20:47;10.13;;;9.27;;
30462;SDS011;17256;43.618;25.336;2023-06-22T07:23:13;10.67;;;9.77;;
30462;SDS011;17256;43.618;25.336;2023-06-22T07:25:38;10.77;;;9.90;;
30462;SDS011;17256;43.618;25.336;2023-06-22T07:28:06;10.07;;;9.17;;
30462;SDS011;17256;43.618;25.336;2023-06-22T07:30:33;8.97;;;8.17;;
30462;SDS011;17256;43.618;25.336;2023-06-22T07:32:59;10.37;;;9.33;;
30462;SDS011;17256;43.618;25.336;2023-06-22T07:35:29;13.20;;;10.03;;
30462;SDS011;17256;43.618;25.336;2023-06-22T07:37:56;9.33;;;8.63;;
30462;SDS011;17256;43.618;25.336;2023-06-22T07:40:21;13.83;;;9.23;;
30462;SDS011;17256;43.618;25.336;2023-06-22T07:42:47;10.40;;;9.43;;
30462;SDS011;17256;43.618;25.336;2023-06-22T07:45:17;10.23;;;9.43;;
30462;SDS011;17256;43.618;25.336;2023-06-22T07:47:43;10.40;;;9.50;;
30462;SDS011;17256;43.618;25.336;2023-06-22T07:50:08;9.50;;;8.60;;
30462;SDS011;17256;43.618;25.336;2023-06-22T07:52:35;10.97;;;10.07;;
30462;SDS011;17256;43.618;25.336;2023-06-22T07:55:01;9.90;;;9.10;;
30462;SDS011;17256;43.618;25.336;2023-06-22T07:57:27;9.60;;;8.63;;
30462;SDS011;17256;43.618;25.336;2023-06-22T08:00:02;10.77;;;9.40;;
30462;SDS011;17256;43.618;25.336;2023-06-22T08:02:38;11.00;;;10.00;;
30462;SDS011;17256;43.618;25.336;2023-06-22T08:05:04;10.37;;;9.27;;
30462;SDS011;17256;43.618;25.336;2023-06-22T08:07:31;12.53;;;8.73;;
30462;SDS011;17256;43.618;25.336;2023-06-22T08:09:58;10.07;;;9.17;;
30462;SDS011;17256;43.618;25.336;2023-06-22T08:12:24;9.90;;;9.03;;
30462;SDS011;17256;43.618;25.336;2023-06-22T08:14:49;8.77;;;8.07;;
30462;SDS011;17256;43.618;25.336;2023-06-22T08:17:15;9.97;;;8.37;;
30462;SDS011;17256;43.618;25.336;2023-06-22T08:19:41;10.10;;;9.20;;
30462;SDS011;17256;43.618;25.336;2023-06-22T08:22:06;9.07;;;8.37;;
30462;SDS011;17256;43.618;25.336;2023-06-22T08:24:32;9.90;;;8.87;;
30462;SDS011;17256;43.618;25.336;2023-06-22T08:26:58;10.10;;;8.17;;
30462;SDS011;17256;43.618;25.336;2023-06-22T08:29:24;13.67;;;8.20;;
30462;SDS011;17256;43.618;25.336;2023-06-22T08:31:49;9.83;;;9.00;;
30462;SDS011;17256;43.618;25.336;2023-06-22T08:34:15;10.20;;;9.20;;
30462;SDS011;17256;43.618;25.336;2023-06-22T08:36:40;9.10;;;8.20;;
30462;SDS011;17256;43.618;25.336;2023-06-22T08:39:08;11.47;;;9.43;;
30462;SDS011;17256;43.618;25.336;2023-06-22T08:41:34;9.33;;;8.63;;
30462;SDS011;17256;43.618;25.336;2023-06-22T08:43:59;8.20;;;7.40;;
30462;SDS011;17256;43.618;25.336;2023-06-22T08:46:25;10.27;;;9.47;;
30462;SDS011;17256;43.618;25.336;2023-06-22T08:48:56;9.60;;;8.90;;
30462;SDS011;17256;43.618;25.336;2023-06-22T08:51:24;9.35;;;8.38;;
30462;SDS011;17256;43.618;25.336;2023-06-22T08:53:50;11.73;;;8.80;;
30462;SDS011;17256;43.618;25.336;2023-06-22T08:56:15;10.75;;;9.65;;
30462;SDS011;17256;43.618;25.336;2023-06-22T08:58:41;8.88;;;8.13;;
30462;SDS011;17256;43.618;25.336;2023-06-22T09:01:06;8.70;;;7.90;;
30462;SDS011;17256;43.618;25.336;2023-06-22T09:03:32;9.02;;;8.10;;
30462;SDS011;17256;43.618;25.336;2023-06-22T09:06:01;8.85;;;8.15;;
30462;SDS011;17256;43.618;25.336;2023-06-22T09:08:26;9.13;;;8.43;;
30462;SDS011;17256;43.618;25.336;2023-06-22T09:10:52;8.80;;;7.90;;
30462;SDS011;17256;43.618;25.336;2023-06-22T09:13:18;8.65;;;7.90;;
30462;SDS011;17256;43.618;25.336;2023-06-22T09:15:43;8.60;;;8.00;;
30462;SDS011;17256;43.618;25.336;2023-06-22T09:18:13;9.23;;;8.32;;
30462;SDS011;17256;43.618;25.336;2023-06-22T09:20:39;8.48;;;7.72;;
30462;SDS011;17256;43.618;25.336;2023-06-22T09:23:04;7.93;;;7.32;;
30462;SDS011;17256;43.618;25.336;2023-06-22T09:25:30;8.98;;;8.18;;
30462;SDS011;17256;43.618;25.336;2023-06-22T09:27:56;9.45;;;8.68;;
30462;SDS011;17256;43.618;25.336;2023-06-22T09:30:21;8.63;;;7.93;;
30462;SDS011;17256;43.618;25.336;2023-06-22T09:32:47;8.98;;;8.05;;
30462;SDS011;17256;43.618;25.336;2023-06-22T09:35:13;8.18;;;7.45;;
30462;SDS011;17256;43.618;25.336;2023-06-22T09:37:38;8.50;;;7.70;;
30462;SDS011;17256;43.618;25.336;2023-06-22T09:40:05;8.35;;;7.75;;
30462;SDS011;17256;43.618;25.336;2023-06-22T09:42:37;8.52;;;7.82;;
30462;SDS011;17256;43.618;25.336;2023-06-22T09:45:03;8.20;;;7.40;;
30462;SDS011;17256;43.618;25.336;2023-06-22T09:47:29;8.23;;;7.43;;
30462;SDS011;17256;43.618;25.336;2023-06-22T09:49:55;8.85;;;7.43;;
30462;SDS011;17256;43.618;25.336;2023-06-22T09:52:21;9.07;;;7.95;;
30462;SDS011;17256;43.618;25.336;2023-06-22T09:54:47;8.55;;;7.60;;
30462;SDS011;17256;43.618;25.336;2023-06-22T09:57:12;7.65;;;7.05;;
30462;SDS011;17256;43.618;25.336;2023-06-22T09:59:38;9.00;;;8.23;;
30462;SDS011;17256;43.618;25.336;2023-06-22T10:02:07;8.25;;;7.65;;
30462;SDS011;17256;43.618;25.336;2023-06-22T10:04:33;8.55;;;7.38;;
30462;SDS011;17256;43.618;25.336;2023-06-22T10:07:02;7.57;;;6.97;;
30462;SDS011;17256;43.618;25.336;2023-06-22T10:09:28;7.53;;;6.93;;
30462;SDS011;17256;43.618;25.336;2023-06-22T10:11:53;7.80;;;7.20;;
30462;SDS011;17256;43.618;25.336;2023-06-22T10:14:19;8.35;;;6.20;;
30462;SDS011;17256;43.618;25.336;2023-06-22T10:16:45;7.50;;;7.00;;
30462;SDS011;17256;43.618;25.336;2023-06-22T10:19:10;6.90;;;6.30;;
30462;SDS011;17256;43.618;25.336;2023-06-22T10:21:36;6.60;;;6.20;;
30462;SDS011;17256;43.618;25.336;2023-06-22T10:24:01;7.07;;;6.47;;
30462;SDS011;17256;43.618;25.336;2023-06-22T10:26:34;6.72;;;6.22;;
30462;SDS011;17256;43.618;25.336;2023-06-22T10:29:04;7.20;;;6.70;;
30462;SDS011;17256;43.618;25.336;2023-06-22T10:31:29;7.22;;;6.63;;
30462;SDS011;17256;43.618;25.336;2023-06-22T10:33:55;6.72;;;6.22;;
30462;SDS011;17256;43.618;25.336;2023-06-22T10:36:21;7.35;;;6.82;;
30462;SDS011;17256;43.618;25.336;2023-06-22T10:38:48;7.13;;;6.63;;
30462;SDS011;17256;43.618;25.336;2023-06-22T10:41:14;9.48;;;6.32;;
30462;SDS011;17256;43.618;25.336;2023-06-22T10:43:40;7.30;;;6.70;;
30462;SDS011;17256;43.618;25.336;2023-06-22T10:46:06;9.50;;;6.68;;
30462;SDS011;17256;43.618;25.336;2023-06-22T10:48:31;7.75;;;7.15;;
30462;SDS011;17256;43.618;25.336;2023-06-22T10:50:57;8.00;;;7.40;;
30462;SDS011;17256;43.618;25.336;2023-06-22T10:53:23;7.43;;;6.72;;
30462;SDS011;17256;43.618;25.336;2023-06-22T10:55:48;8.02;;;7.47;;
30462;SDS011;17256;43.618;25.336;2023-06-22T10:58:14;8.60;;;7.88;;
30462;SDS011;17256;43.618;25.336;2023-06-22T11:00:40;8.30;;;7.78;;
30462;SDS011;17256;43.618;25.336;2023-06-22T11:03:05;8.55;;;7.75;;
30462;SDS011;17256;43.618;25.336;2023-06-22T11:05:31;8.65;;;7.75;;
30462;SDS011;17256;43.618;25.336;2023-06-22T11:11:56;7.60;;;7.00;;
30462;SDS011;17256;43.618;25.336;2023-06-22T11:14:22;6.85;;;6.43;;
30462;SDS011;17256;43.618;25.336;2023-06-22T11:16:48;7.95;;;7.40;;
30462;SDS011;17256;43.618;25.336;2023-06-22T11:19:14;7.53;;;7.03;;
30462;SDS011;17256;43.618;25.336;2023-06-22T11:21:40;8.07;;;7.35;;
30462;SDS011;17256;43.618;25.336;2023-06-22T11:24:06;9.07;;;8.20;;
30462;SDS011;17256;43.618;25.336;2023-06-22T11:26:31;9.70;;;8.32;;
30462;SDS011;17256;43.618;25.336;2023-06-22T11:28:58;7.72;;;7.22;;
30462;SDS011;17256;43.618;25.336;2023-06-22T11:31:23;8.45;;;7.65;;
30462;SDS011;17256;43.618;25.336;2023-06-22T11:33:50;8.23;;;7.63;;
30462;SDS011;17256;43.618;25.336;2023-06-22T11:36:16;8.63;;;7.95;;
30462;SDS011;17256;43.618;25.336;2023-06-22T11:38:42;8.43;;;7.80;;
30462;SDS011;17256;43.618;25.336;2023-06-22T11:41:08;7.80;;;6.93;;
30462;SDS011;17256;43.618;25.336;2023-06-22T11:43:35;7.60;;;6.95;;
30462;SDS011;17256;43.618;25.336;2023-06-22T11:46:02;8.70;;;7.80;;
30462;SDS011;17256;43.618;25.336;2023-06-22T11:48:28;8.68;;;7.93;;
30462;SDS011;17256;43.618;25.336;2023-06-22T11:50:54;7.65;;;6.70;;
30462;SDS011;17256;43.618;25.336;2023-06-22T11:53:21;8.75;;;7.53;;
30462;SDS011;17256;43.618;25.336;2023-06-22T11:55:47;7.47;;;6.85;;
30462;SDS011;17256;43.618;25.336;2023-06-22T11:58:14;7.57;;;6.93;;
30462;SDS011;17256;43.618;25.336;2023-06-22T12:00:39;8.02;;;7.43;;
30462;SDS011;17256;43.618;25.336;2023-06-22T12:03:07;8.20;;;7.60;;
30462;SDS011;17256;43.618;25.336;2023-06-22T12:05:33;8.15;;;7.45;;
30462;SDS011;17256;43.618;25.336;2023-06-22T12:07:58;7.93;;;7.40;;
30462;SDS011;17256;43.618;25.336;2023-06-22T12:10:25;7.25;;;6.55;;
30462;SDS011;17256;43.618;25.336;2023-06-22T12:12:51;7.32;;;6.82;;
30462;SDS011;17256;43.618;25.336;2023-06-22T12:15:16;8.52;;;7.82;;
30462;SDS011;17256;43.618;25.336;2023-06-22T12:17:42;7.05;;;6.55;;
30462;SDS011;17256;43.618;25.336;2023-06-22T12:20:08;7.90;;;7.30;;
30462;SDS011;17256;43.618;25.336;2023-06-22T12:22:34;8.10;;;7.55;;
30462;SDS011;17256;43.618;25.336;2023-06-22T12:25:00;9.18;;;8.25;;
30462;SDS011;17256;43.618;25.336;2023-06-22T12:27:26;7.97;;;7.28;;
30462;SDS011;17256;43.618;25.336;2023-06-22T12:29:52;7.65;;;7.05;;
30462;SDS011;17256;43.618;25.336;2023-06-22T12:32:18;8.00;;;7.25;;
30462;SDS011;17256;43.618;25.336;2023-06-22T12:34:43;7.28;;;6.68;;
30462;SDS011;17256;43.618;25.336;2023-06-22T12:37:09;8.88;;;8.18;;
30462;SDS011;17256;43.618;25.336;2023-06-22T12:39:35;8.77;;;7.60;;
30462;SDS011;17256;43.618;25.336;2023-06-22T12:42:01;8.07;;;7.47;;
30462;SDS011;17256;43.618;25.336;2023-06-22T12:44:27;8.07;;;7.30;;
30462;SDS011;17256;43.618;25.336;2023-06-22T12:46:52;9.35;;;8.60;;
30462;SDS011;17256;43.618;25.336;2023-06-22T12:49:18;8.40;;;7.70;;
30462;SDS011;17256;43.618;25.336;2023-06-22T12:51:43;7.97;;;7.28;;
30462;SDS011;17256;43.618;25.336;2023-06-22T12:54:10;7.18;;;6.68;;
30462;SDS011;17256;43.618;25.336;2023-06-22T12:56:36;8.00;;;7.30;;
30462;SDS011;17256;43.618;25.336;2023-06-22T12:59:03;8.55;;;7.72;;
30462;SDS011;17256;43.618;25.336;2023-06-22T13:01:31;7.10;;;6.60;;
30462;SDS011;17256;43.618;25.336;2023-06-22T13:04:00;7.57;;;6.93;;
30462;SDS011;17256;43.618;25.336;2023-06-22T13:06:26;7.68;;;7.07;;
30462;SDS011;17256;43.618;25.336;2023-06-22T13:08:51;7.72;;;7.03;;
30462;SDS011;17256;43.618;25.336;2023-06-22T13:11:17;8.18;;;7.57;;
30462;SDS011;17256;43.618;25.336;2023-06-22T13:13:43;7.93;;;7.32;;
30462;SDS011;17256;43.618;25.336;2023-06-22T13:16:09;7.97;;;7.07;;
30462;SDS011;17256;43.618;25.336;2023-06-22T13:18:35;7.95;;;7.38;;
30462;SDS011;17256;43.618;25.336;2023-06-22T13:21:01;8.32;;;7.38;;
30462;SDS011;17256;43.618;25.336;2023-06-22T13:23:27;9.10;;;8.18;;
30462;SDS011;17256;43.618;25.336;2023-06-22T13:25:52;7.93;;;7.30;;
30462;SDS011;17256;43.618;25.336;2023-06-22T13:28:18;9.93;;;8.00;;
30462;SDS011;17256;43.618;25.336;2023-06-22T13:30:45;8.73;;;7.78;;
30462;SDS011;17256;43.618;25.336;2023-06-22T13:33:12;7.63;;;7.13;;
30462;SDS011;17256;43.618;25.336;2023-06-22T13:35:39;7.65;;;7.05;;
30462;SDS011;17256;43.618;25.336;2023-06-22T13:38:04;8.18;;;7.18;;
30462;SDS011;17256;43.618;25.336;2023-06-22T13:40:30;8.27;;;7.47;;
30462;SDS011;17256;43.618;25.336;2023-06-22T13:42:56;7.35;;;6.75;;
30462;SDS011;17256;43.618;25.336;2023-06-22T13:45:22;7.82;;;7.28;;
30462;SDS011;17256;43.618;25.336;2023-06-22T13:47:47;7.75;;;7.05;;
30462;SDS011;17256;43.618;25.336;2023-06-22T13:50:13;7.63;;;6.97;;
30462;SDS011;17256;43.618;25.336;2023-06-22T13:52:39;8.27;;;7.07;;
30462;SDS011;17256;43.618;25.336;2023-06-22T13:55:05;7.90;;;6.93;;
30462;SDS011;17256;43.618;25.336;2023-06-22T13:57:32;14.55;;;13.15;;
30462;SDS011;17256;43.618;25.336;2023-06-22T13:59:59;7.82;;;7.22;;
30462;SDS011;17256;43.618;25.336;2023-06-22T14:02:28;6.60;;;5.97;;
30462;SDS011;17256;43.618;25.336;2023-06-22T14:04:53;7.10;;;6.47;;
30462;SDS011;17256;43.618;25.336;2023-06-22T14:07:19;6.18;;;5.78;;
30462;SDS011;17256;43.618;25.336;2023-06-22T14:09:46;6.15;;;5.68;;
30462;SDS011;17256;43.618;25.336;2023-06-22T14:12:12;5.90;;;5.50;;
30462;SDS011;17256;43.618;25.336;2023-06-22T14:14:38;6.60;;;6.07;;
30462;SDS011;17256;43.618;25.336;2023-06-22T14:17:04;6.43;;;6.03;;
30462;SDS011;17256;43.618;25.336;2023-06-22T14:19:30;5.70;;;5.30;;
30462;SDS011;17256;43.618;25.336;2023-06-22T14:21:56;6.50;;;6.00;;
30462;SDS011;17256;43.618;25.336;2023-06-22T14:24:22;6.63;;;6.13;;
30462;SDS011;17256;43.618;25.336;2023-06-22T14:26:48;6.25;;;5.85;;
30462;SDS011;17256;43.618;25.336;2023-06-22T14:29:14;6.93;;;6.40;;
30462;SDS011;17256;43.618;25.336;2023-06-22T14:31:39;7.80;;;7.07;;